createdAt,value
2022-08-05T00:00:22.933Z,1006.48
2022-08-05T00:01:28.404Z,1006.47
2022-08-05T00:02:23.008Z,1006.47
2022-08-05T00:03:22.893Z,1006.47
2022-08-05T00:04:22.874Z,1006.47
2022-08-05T00:05:27.195Z,1006.46
2022-08-05T00:06:32.329Z,1006.46
2022-08-05T00:07:59.683Z,1006.45
2022-08-05T00:08:35.702Z,1006.46
2022-08-05T00:09:22.824Z,1006.47
2022-08-05T00:10:22.791Z,1006.49
2022-08-05T00:11:30.182Z,1006.51
2022-08-05T00:12:22.792Z,1006.50
2022-08-05T00:13:38.334Z,1006.48
2022-08-05T00:14:22.779Z,1006.46
2022-08-05T00:15:55.410Z,1006.43
2022-08-05T00:16:36.484Z,1006.43
2022-08-05T00:17:22.729Z,1006.43
2022-08-05T00:18:22.895Z,1006.43
2022-08-05T00:19:23.241Z,1006.44
2022-08-05T00:20:22.709Z,1006.44
2022-08-05T00:21:22.684Z,1006.41
2022-08-05T00:22:22.670Z,1006.40
2022-08-05T00:23:44.731Z,1006.38
2022-08-05T00:24:24.774Z,1006.38
2022-08-05T00:25:22.642Z,1006.37
2022-08-05T00:26:22.663Z,1006.36
2022-08-05T00:27:22.719Z,1006.37
2022-08-05T00:28:29.772Z,1006.39
2022-08-05T00:29:25.495Z,1006.40
2022-08-05T00:30:28.986Z,1006.40
2022-08-05T00:31:53.807Z,1006.38
2022-08-05T00:32:22.574Z,1006.37
2022-08-05T00:34:54.291Z,1006.36
2022-08-05T00:35:10.541Z,1006.36
2022-08-05T00:35:22.529Z,1006.37
2022-08-05T00:37:11.941Z,1006.38
2022-08-05T00:37:22.512Z,1006.39
2022-08-05T00:38:28.840Z,1006.39
2022-08-05T00:39:22.620Z,1006.40
2022-08-05T00:40:26.801Z,1006.40
2022-08-05T00:41:22.477Z,1006.39
2022-08-05T00:42:31.916Z,1006.39
2022-08-05T00:43:22.454Z,1006.39
2022-08-05T00:44:23.096Z,1006.40
2022-08-05T00:45:28.407Z,1006.40
2022-08-05T00:46:42.541Z,1006.41
2022-08-05T00:47:22.465Z,1006.38
2022-08-05T00:48:31.224Z,1006.37
2022-08-05T00:49:22.413Z,1006.36
2022-08-05T00:50:22.404Z,1006.34
2022-08-05T00:51:51.383Z,1006.34
2022-08-05T00:52:28.728Z,1006.33
2022-08-05T00:54:00.133Z,1006.33
2022-08-05T00:54:22.350Z,1006.32
2022-08-05T00:55:22.357Z,1006.31
2022-08-05T00:56:23.013Z,1006.30
2022-08-05T00:57:22.685Z,1006.30
2022-08-05T00:58:22.301Z,1006.31
2022-08-05T00:59:22.292Z,1006.32
2022-08-05T01:00:22.291Z,1006.33
2022-08-05T01:01:42.078Z,1006.36
2022-08-05T01:02:22.264Z,1006.37
2022-08-05T01:03:23.433Z,1006.40
2022-08-05T01:04:26.780Z,1006.44
2022-08-05T01:05:22.237Z,1006.47
2022-08-05T01:06:22.220Z,1006.49
2022-08-05T01:07:22.234Z,1006.52
2022-08-05T01:08:40.697Z,1006.55
2022-08-05T01:09:22.184Z,1006.58
2022-08-05T01:10:22.197Z,1006.62
2022-08-05T01:11:24.265Z,1006.64
2022-08-05T01:12:22.161Z,1006.63
2022-08-05T01:13:22.381Z,1006.58
2022-08-05T01:14:27.879Z,1006.53
2022-08-05T01:15:36.300Z,1006.50
2022-08-05T01:16:26.142Z,1006.49
2022-08-05T01:17:22.322Z,1006.51
2022-08-05T01:18:22.091Z,1006.52
2022-08-05T01:19:30.153Z,1006.54
2022-08-05T01:20:22.415Z,1006.57
2022-08-05T01:21:23.000Z,1006.59
2022-08-05T01:22:24.130Z,1006.59
2022-08-05T01:23:23.205Z,1006.59
2022-08-05T01:24:22.167Z,1006.59
2022-08-05T01:25:22.029Z,1006.57
2022-08-05T01:26:21.999Z,1006.57
2022-08-05T01:27:22.224Z,1006.58
2022-08-05T01:28:21.991Z,1006.61
2022-08-05T01:29:22.966Z,1006.64
2022-08-05T01:30:34.717Z,1006.67
2022-08-05T01:31:21.957Z,1006.70
2022-08-05T01:32:21.945Z,1006.73
2022-08-05T01:33:21.946Z,1006.72
2022-08-05T01:34:21.930Z,1006.67
2022-08-05T01:35:50.260Z,1006.64
2022-08-05T01:36:21.915Z,1006.63
2022-08-05T01:37:25.079Z,1006.59
2022-08-05T01:38:27.514Z,1006.56
2022-08-05T01:39:46.453Z,1006.57
2022-08-05T01:40:21.898Z,1006.59
2022-08-05T01:41:22.085Z,1006.59
2022-08-05T01:42:21.839Z,1006.58
2022-08-05T01:43:22.129Z,1006.58
2022-08-05T01:44:21.818Z,1006.58
2022-08-05T01:45:21.862Z,1006.60
2022-08-05T01:46:41.329Z,1006.63
2022-08-05T01:47:22.120Z,1006.63
2022-08-05T01:48:21.784Z,1006.64
2022-08-05T01:49:23.605Z,1006.66
2022-08-05T01:50:28.513Z,1006.67
2022-08-05T01:51:21.749Z,1006.63
2022-08-05T01:52:21.734Z,1006.58
2022-08-05T01:53:57.086Z,1006.55
2022-08-05T01:54:25.661Z,1006.55
2022-08-05T01:55:21.749Z,1006.56
2022-08-05T01:58:09.431Z,1006.57
2022-08-05T01:58:40.673Z,1006.57
2022-08-05T01:58:50.382Z,1006.58
2022-08-05T01:59:28.885Z,1006.58
2022-08-05T02:00:30.287Z,1006.58
2022-08-05T02:01:28.883Z,1006.58
2022-08-05T02:02:28.892Z,1006.57
2022-08-05T02:03:31.880Z,1006.58
2022-08-05T02:04:28.832Z,1006.58
2022-08-05T02:05:28.893Z,1006.60
2022-08-05T02:06:37.777Z,1006.60
2022-08-05T02:07:30.476Z,1006.57
2022-08-05T02:08:31.082Z,1006.56
2022-08-05T02:09:28.762Z,1006.54
2022-08-05T02:10:28.878Z,1006.53
2022-08-05T02:11:33.359Z,1006.50
2022-08-05T02:12:28.743Z,1006.46
2022-08-05T02:13:28.724Z,1006.46
2022-08-05T02:14:28.740Z,1006.47
2022-08-05T02:15:33.500Z,1006.50
2022-08-05T02:16:28.701Z,1006.52
2022-08-05T02:18:28.494Z,1006.52
2022-08-05T02:18:37.459Z,1006.50
2022-08-05T02:19:28.668Z,1006.47
2022-08-05T02:20:28.716Z,1006.44
2022-08-05T02:21:28.664Z,1006.42
2022-08-05T02:22:28.634Z,1006.39
2022-08-05T02:23:28.621Z,1006.38
2022-08-05T02:24:28.626Z,1006.39
2022-08-05T02:25:33.406Z,1006.42
2022-08-05T02:26:28.598Z,1006.45
2022-08-05T02:27:29.881Z,1006.47
2022-08-05T02:28:32.157Z,1006.48
2022-08-05T02:30:00.037Z,1006.48
2022-08-05T02:30:28.568Z,1006.48
2022-08-05T02:31:28.620Z,1006.49
2022-08-05T02:32:31.005Z,1006.48
2022-08-05T02:33:36.146Z,1006.47
2022-08-05T02:34:28.509Z,1006.48
2022-08-05T02:35:33.329Z,1006.49
2022-08-05T02:36:31.211Z,1006.51
2022-08-05T02:37:28.489Z,1006.51
2022-08-05T02:38:35.120Z,1006.51
2022-08-05T02:39:28.540Z,1006.51
2022-08-05T02:40:28.463Z,1006.51
2022-08-05T02:41:43.404Z,1006.52
2022-08-05T02:42:31.932Z,1006.53
2022-08-05T02:43:28.420Z,1006.53
2022-08-05T02:44:28.418Z,1006.54
2022-08-05T02:45:28.665Z,1006.55
2022-08-05T02:46:28.384Z,1006.57
2022-08-05T02:47:58.386Z,1006.56
2022-08-05T02:48:29.053Z,1006.56
2022-08-05T02:49:36.388Z,1006.55
2022-08-05T02:50:28.380Z,1006.54
2022-08-05T02:52:03.151Z,1006.53
2022-08-05T02:52:30.447Z,1006.50
2022-08-05T02:53:28.473Z,1006.48
2022-08-05T02:54:36.506Z,1006.46
2022-08-05T02:55:52.051Z,1006.45
2022-08-05T02:56:28.281Z,1006.44
2022-08-05T02:58:19.911Z,1006.45
2022-08-05T02:58:28.913Z,1006.46
2022-08-05T02:59:28.247Z,1006.47
2022-08-05T03:00:28.274Z,1006.47
2022-08-05T03:01:28.240Z,1006.48
2022-08-05T03:02:28.222Z,1006.49
2022-08-05T03:04:22.994Z,1006.51
2022-08-05T03:06:52.485Z,1006.53
2022-08-05T03:06:59.339Z,1006.54
2022-08-05T03:07:59.372Z,1006.54
2022-08-05T03:08:29.925Z,1006.52
2022-08-05T03:09:36.030Z,1006.52
2022-08-05T03:10:25.062Z,1006.51
2022-08-05T03:11:55.141Z,1006.49
2022-08-05T03:12:23.430Z,1006.46
2022-08-05T03:13:27.701Z,1006.45
2022-08-05T03:14:23.408Z,1006.45
2022-08-05T03:15:24.362Z,1006.44
2022-08-05T03:16:23.403Z,1006.44
2022-08-05T03:17:23.681Z,1006.43
2022-08-05T03:18:24.667Z,1006.39
2022-08-05T03:19:33.706Z,1006.37
2022-08-05T03:20:24.267Z,1006.37
2022-08-05T03:21:23.348Z,1006.37
2022-08-05T03:22:32.116Z,1006.38
2022-08-05T03:23:24.019Z,1006.36
2022-08-05T03:24:30.200Z,1006.33
2022-08-05T03:26:03.638Z,1006.29
2022-08-05T03:26:34.468Z,1006.27
2022-08-05T03:27:23.492Z,1006.28
2022-08-05T03:28:23.270Z,1006.31
2022-08-05T03:29:23.258Z,1006.29
2022-08-05T03:30:23.261Z,1006.28
2022-08-05T03:31:56.070Z,1006.29
2022-08-05T03:32:30.929Z,1006.32
2022-08-05T03:33:23.222Z,1006.34
2022-08-05T03:34:24.412Z,1006.35
2022-08-05T03:35:23.236Z,1006.34
2022-08-05T03:36:30.118Z,1006.36
2022-08-05T03:37:23.534Z,1006.37
2022-08-05T03:38:32.617Z,1006.33
2022-08-05T03:39:27.106Z,1006.27
2022-08-05T03:40:24.175Z,1006.24
2022-08-05T03:41:23.623Z,1006.25
2022-08-05T03:42:23.128Z,1006.26
2022-08-05T03:44:09.501Z,1006.26
2022-08-05T03:44:23.114Z,1006.26
2022-08-05T03:45:23.702Z,1006.27
2022-08-05T03:46:23.087Z,1006.26
2022-08-05T03:47:23.335Z,1006.27
2022-08-05T03:48:23.062Z,1006.29
2022-08-05T03:49:24.210Z,1006.29
2022-08-05T03:50:23.067Z,1006.32
2022-08-05T03:52:37.150Z,1006.33
2022-08-05T03:56:01.909Z,1006.34
2022-08-05T03:56:27.785Z,1006.40
2022-08-05T03:56:41.296Z,1006.41
2022-08-05T03:57:29.233Z,1006.42
2022-08-05T03:58:27.128Z,1006.43
2022-08-05T03:59:29.161Z,1006.43
2022-08-05T04:00:26.752Z,1006.44
2022-08-05T04:01:26.730Z,1006.44
2022-08-05T04:02:37.624Z,1006.44
2022-08-05T04:03:28.782Z,1006.45
2022-08-05T04:04:26.677Z,1006.46
2022-08-05T04:05:27.999Z,1006.46
2022-08-05T04:06:26.697Z,1006.47
2022-08-05T04:07:26.643Z,1006.48
2022-08-05T04:08:35.105Z,1006.49
2022-08-05T04:09:26.846Z,1006.50
2022-08-05T04:10:27.756Z,1006.51
2022-08-05T04:11:47.675Z,1006.51
2022-08-05T04:12:26.598Z,1006.52
2022-08-05T04:13:49.401Z,1006.52
2022-08-05T04:14:29.430Z,1006.53
2022-08-05T04:15:26.582Z,1006.53
2022-08-05T04:16:32.654Z,1006.52
2022-08-05T04:17:36.515Z,1006.51
2022-08-05T04:18:26.551Z,1006.49
2022-08-05T04:19:26.525Z,1006.49
2022-08-05T04:20:26.535Z,1006.49
2022-08-05T04:22:05.717Z,1006.48
2022-08-05T04:22:26.640Z,1006.47
2022-08-05T04:24:05.851Z,1006.46
2022-08-05T04:24:27.652Z,1006.45
2022-08-05T04:25:57.740Z,1006.43
2022-08-05T04:26:26.456Z,1006.42
2022-08-05T04:27:42.179Z,1006.40
2022-08-05T04:28:28.522Z,1006.40
2022-08-05T04:29:26.461Z,1006.40
2022-08-05T04:30:26.697Z,1006.38
2022-08-05T04:31:27.709Z,1006.36
2022-08-05T04:32:31.196Z,1006.34
2022-08-05T04:34:18.826Z,1006.31
2022-08-05T04:34:32.365Z,1006.30
2022-08-05T04:35:26.384Z,1006.31
2022-08-05T04:36:45.661Z,1006.31
2022-08-05T04:38:02.451Z,1006.34
2022-08-05T04:38:39.530Z,1006.35
2022-08-05T04:39:27.384Z,1006.36
2022-08-05T04:40:26.323Z,1006.37
2022-08-05T04:41:37.068Z,1006.39
2022-08-05T04:42:26.303Z,1006.42
2022-08-05T04:43:26.283Z,1006.44
2022-08-05T04:44:30.151Z,1006.46
2022-08-05T04:45:47.853Z,1006.48
2022-08-05T04:46:27.828Z,1006.50
2022-08-05T04:47:26.573Z,1006.52
2022-08-05T04:48:27.329Z,1006.54
2022-08-05T04:49:38.584Z,1006.55
2022-08-05T04:50:37.564Z,1006.58
2022-08-05T04:51:26.207Z,1006.63
2022-08-05T04:52:27.774Z,1006.68
2022-08-05T04:53:26.183Z,1006.71
2022-08-05T04:54:26.166Z,1006.74
2022-08-05T04:56:00.087Z,1006.74
2022-08-05T04:56:35.210Z,1006.73
2022-08-05T04:57:28.535Z,1006.71
2022-08-05T04:58:26.150Z,1006.70
2022-08-05T04:59:38.290Z,1006.67
2022-08-05T05:00:26.134Z,1006.66
2022-08-05T05:02:08.117Z,1006.66
2022-08-05T05:02:43.366Z,1006.67
2022-08-05T05:03:26.081Z,1006.68
2022-08-05T05:04:26.069Z,1006.71
2022-08-05T05:05:29.136Z,1006.73
2022-08-05T05:06:36.044Z,1006.75
2022-08-05T05:07:29.534Z,1006.75
2022-08-05T05:08:29.898Z,1006.74
2022-08-05T05:09:26.020Z,1006.73
2022-08-05T05:10:26.018Z,1006.72
2022-08-05T05:11:33.321Z,1006.72
2022-08-05T05:12:27.210Z,1006.71
2022-08-05T05:13:26.190Z,1006.73
2022-08-05T05:14:28.003Z,1006.72
2022-08-05T05:15:57.291Z,1006.70
2022-08-05T05:16:30.435Z,1006.70
2022-08-05T05:17:56.510Z,1006.70
2022-08-05T05:18:28.214Z,1006.71
2022-08-05T05:19:27.315Z,1006.72
2022-08-05T05:20:28.760Z,1006.73
2022-08-05T05:21:27.131Z,1006.73
2022-08-05T05:22:26.699Z,1006.73
2022-08-05T05:23:25.884Z,1006.75
2022-08-05T05:24:56.243Z,1006.74
2022-08-05T05:25:32.737Z,1006.74
2022-08-05T05:26:28.727Z,1006.72
2022-08-05T05:27:41.263Z,1006.72
2022-08-05T05:28:25.829Z,1006.73
2022-08-05T05:30:03.542Z,1006.75
2022-08-05T05:30:29.852Z,1006.77
2022-08-05T05:31:25.804Z,1006.77
2022-08-05T05:32:24.779Z,1006.79
2022-08-05T05:33:25.772Z,1006.79
2022-08-05T05:34:27.113Z,1006.82
2022-08-05T05:35:25.772Z,1006.85
2022-08-05T05:36:28.687Z,1006.88
2022-08-05T05:37:29.261Z,1006.92
2022-08-05T05:38:27.008Z,1006.98
2022-08-05T05:39:25.763Z,1007.03
2022-08-05T05:40:26.078Z,1007.10
2022-08-05T05:41:25.701Z,1007.16
2022-08-05T05:42:25.695Z,1007.21
2022-08-05T05:43:57.084Z,1007.26
2022-08-05T05:44:36.455Z,1007.29
2022-08-05T05:45:25.676Z,1007.33
2022-08-05T05:46:25.646Z,1007.36
2022-08-05T05:47:30.518Z,1007.40
2022-08-05T05:48:27.521Z,1007.44
2022-08-05T05:49:25.614Z,1007.46
2022-08-05T05:50:25.848Z,1007.46
2022-08-05T05:51:27.728Z,1007.45
2022-08-05T05:52:28.627Z,1007.43
2022-08-05T05:53:25.575Z,1007.39
2022-08-05T05:54:49.825Z,1007.31
2022-08-05T05:55:25.580Z,1007.23
2022-08-05T05:56:26.074Z,1007.16
2022-08-05T05:57:25.642Z,1007.13
2022-08-05T05:58:30.241Z,1007.15
2022-08-05T05:59:25.516Z,1007.20
2022-08-05T06:00:31.439Z,1007.26
2022-08-05T06:01:26.345Z,1007.34
2022-08-05T06:02:36.700Z,1007.40
2022-08-05T06:03:39.825Z,1007.47
2022-08-05T06:04:25.567Z,1007.53
2022-08-05T06:05:25.461Z,1007.60
2022-08-05T06:06:28.032Z,1007.64
2022-08-05T06:07:41.754Z,1007.68
2022-08-05T06:08:32.762Z,1007.72
2022-08-05T06:09:51.343Z,1007.78
2022-08-05T06:10:25.432Z,1007.83
2022-08-05T06:11:26.123Z,1007.88
2022-08-05T06:12:27.125Z,1007.93
2022-08-05T06:13:25.369Z,1007.92
2022-08-05T06:14:28.025Z,1007.88
2022-08-05T06:15:25.382Z,1007.83
2022-08-05T06:16:37.188Z,1007.77
2022-08-05T06:17:31.093Z,1007.71
2022-08-05T06:18:31.642Z,1007.73
2022-08-05T06:19:34.207Z,1007.76
2022-08-05T06:20:25.311Z,1007.85
2022-08-05T06:21:35.706Z,1007.84
2022-08-05T06:22:25.288Z,1007.86
2022-08-05T06:23:25.275Z,1007.94
2022-08-05T06:24:27.242Z,1007.95
2022-08-05T06:26:13.436Z,1007.95
2022-08-05T06:26:25.327Z,1007.95
2022-08-05T06:28:12.623Z,1007.98
2022-08-05T06:28:28.422Z,1008.02
2022-08-05T06:29:46.493Z,1008.08
2022-08-05T06:30:25.246Z,1008.20
2022-08-05T06:31:30.282Z,1008.11
2022-08-05T06:32:28.808Z,1008.14
2022-08-05T06:34:00.450Z,1008.15
2022-08-05T06:34:27.688Z,1008.17
2022-08-05T06:36:07.802Z,1008.15
2022-08-05T06:36:25.982Z,1008.13
2022-08-05T06:37:56.390Z,1008.09
2022-08-05T06:38:36.838Z,1008.07
2022-08-05T06:39:26.808Z,1008.04
2022-08-05T06:40:27.975Z,1008.01
2022-08-05T06:41:25.113Z,1007.94
2022-08-05T06:42:25.313Z,1007.95
2022-08-05T06:43:57.713Z,1007.96
2022-08-05T06:44:25.072Z,1007.89
2022-08-05T06:45:44.779Z,1007.85
2022-08-05T06:46:29.669Z,1007.85
2022-08-05T06:47:30.361Z,1007.84
2022-08-05T06:48:56.757Z,1007.86
2022-08-05T06:50:01.336Z,1007.81
2022-08-05T06:50:25.033Z,1007.81
2022-08-05T06:51:29.860Z,1007.86
2022-08-05T06:52:37.204Z,1007.84
2022-08-05T06:53:28.681Z,1007.84
2022-08-05T06:54:25.827Z,1007.84
2022-08-05T06:55:24.959Z,1007.84
2022-08-05T06:56:26.509Z,1007.83
2022-08-05T06:58:03.356Z,1007.81
2022-08-05T06:58:35.408Z,1007.80
2022-08-05T06:59:24.913Z,1007.82
2022-08-05T07:00:25.048Z,1007.81
2022-08-05T07:01:27.770Z,1007.85
2022-08-05T07:02:24.897Z,1007.85
2022-08-05T07:03:28.021Z,1007.81
2022-08-05T07:04:24.867Z,1007.82
2022-08-05T07:05:37.469Z,1007.81
2022-08-05T07:06:24.863Z,1007.74
2022-08-05T07:07:35.625Z,1007.72
2022-08-05T07:08:25.169Z,1007.74
2022-08-05T07:09:25.100Z,1007.76
2022-08-05T07:10:32.448Z,1007.74
2022-08-05T07:11:25.374Z,1007.80
2022-08-05T07:12:24.786Z,1007.81
2022-08-05T07:13:56.751Z,1007.84
2022-08-05T07:14:29.556Z,1007.84
2022-08-05T07:15:34.477Z,1007.88
2022-08-05T07:17:56.485Z,1007.89
2022-08-05T07:18:09.106Z,1007.93
2022-08-05T07:18:29.067Z,1007.92
2022-08-05T07:20:10.675Z,1007.96
2022-08-05T07:20:37.282Z,1007.93
2022-08-05T07:21:25.821Z,1007.97
2022-08-05T07:22:28.139Z,1007.96
2022-08-05T07:23:26.411Z,1007.99
2022-08-05T07:24:24.664Z,1008.04
2022-08-05T07:25:54.969Z,1008.06
2022-08-05T07:26:25.648Z,1008.12
2022-08-05T07:27:27.569Z,1008.17
2022-08-05T07:28:24.637Z,1008.23
2022-08-05T07:30:22.158Z,1008.27
2022-08-05T07:30:33.782Z,1008.33
2022-08-05T07:31:40.779Z,1008.39
2022-08-05T07:32:26.393Z,1008.39
2022-08-05T07:33:36.526Z,1008.42
2022-08-05T07:34:28.605Z,1008.44
2022-08-05T07:36:02.052Z,1008.46
2022-08-05T07:36:24.569Z,1008.39
2022-08-05T07:37:24.754Z,1008.35
2022-08-05T07:38:34.661Z,1008.35
2022-08-05T07:40:26.528Z,1008.34
2022-08-05T07:40:37.357Z,1008.34
2022-08-05T07:42:13.898Z,1008.28
2022-08-05T07:42:33.464Z,1008.27
2022-08-05T07:43:24.474Z,1008.30
2022-08-05T07:44:24.464Z,1008.28
2022-08-05T07:45:56.526Z,1008.35
2022-08-05T07:46:25.986Z,1008.31
2022-08-05T07:47:25.866Z,1008.34
2022-08-05T07:49:03.350Z,1008.32
2022-08-05T07:49:24.411Z,1008.30
2022-08-05T07:50:28.928Z,1008.28
2022-08-05T07:51:37.421Z,1008.24
2022-08-05T07:52:24.391Z,1008.22
2022-08-05T07:53:26.809Z,1008.22
2022-08-05T07:54:26.483Z,1008.21
2022-08-05T07:55:44.195Z,1008.23
2022-08-05T07:57:00.441Z,1008.22
2022-08-05T07:57:51.354Z,1008.25
2022-08-05T07:58:58.493Z,1008.25
2022-08-05T07:59:38.027Z,1008.27
2022-08-05T08:00:24.327Z,1008.32
2022-08-05T08:01:24.315Z,1008.29
2022-08-05T08:02:26.651Z,1008.27
2022-08-05T08:03:24.269Z,1008.28
2022-08-05T08:04:38.017Z,1008.20
2022-08-05T08:05:24.276Z,1008.17
2022-08-05T08:06:28.310Z,1008.14
2022-08-05T08:07:24.699Z,1008.10
2022-08-05T08:08:24.248Z,1008.06
2022-08-05T08:09:24.201Z,1008.09
2022-08-05T08:10:24.228Z,1008.11
2022-08-05T08:11:27.691Z,1008.19
2022-08-05T08:12:32.004Z,1008.30
2022-08-05T08:13:29.029Z,1008.35
2022-08-05T08:14:24.165Z,1008.39
2022-08-05T08:15:37.263Z,1008.37
2022-08-05T08:16:51.446Z,1008.34
2022-08-05T08:17:24.509Z,1008.30
2022-08-05T08:18:24.120Z,1008.15
2022-08-05T08:20:10.418Z,1008.15
2022-08-05T08:21:01.885Z,1008.17
2022-08-05T08:21:24.095Z,1008.21
2022-08-05T08:22:24.079Z,1008.26
2022-08-05T08:24:01.279Z,1008.26
2022-08-05T08:24:24.062Z,1008.27
2022-08-05T08:25:26.815Z,1008.22
2022-08-05T08:26:26.895Z,1008.20
2022-08-05T08:27:35.714Z,1008.13
2022-08-05T08:28:35.811Z,1008.10
2022-08-05T08:30:03.908Z,1008.07
2022-08-05T08:30:32.701Z,1008.02
2022-08-05T08:31:23.990Z,1007.95
2022-08-05T08:32:28.126Z,1007.92
2022-08-05T08:33:23.967Z,1007.87
2022-08-05T08:34:30.533Z,1007.88
2022-08-05T08:35:26.614Z,1007.86
2022-08-05T08:36:38.872Z,1007.89
2022-08-05T08:37:27.955Z,1007.94
2022-08-05T08:38:35.199Z,1008.03
2022-08-05T08:39:23.961Z,1008.11
2022-08-05T08:40:23.908Z,1008.20
2022-08-05T08:41:26.132Z,1008.27
2022-08-05T08:42:34.597Z,1008.32
2022-08-05T08:45:17.743Z,1008.39
2022-08-05T08:45:29.689Z,1008.41
2022-08-05T08:45:35.397Z,1008.45
2022-08-05T08:46:35.389Z,1008.47
2022-08-05T08:48:07.589Z,1008.50
2022-08-05T08:49:03.308Z,1008.60
2022-08-05T08:50:23.461Z,1008.67
2022-08-05T08:51:04.209Z,1008.73
2022-08-05T08:52:03.147Z,1008.76
2022-08-05T08:52:35.347Z,1008.72
2022-08-05T08:53:35.319Z,1008.69
2022-08-05T08:54:36.526Z,1008.65
2022-08-05T08:56:04.605Z,1008.63
2022-08-05T08:56:35.298Z,1008.59
2022-08-05T08:57:42.367Z,1008.55
2022-08-05T08:58:43.643Z,1008.49
2022-08-05T08:59:35.264Z,1008.43
2022-08-05T09:00:35.306Z,1008.45
2022-08-05T09:01:35.237Z,1008.49
2022-08-05T09:02:35.238Z,1008.54
2022-08-05T09:03:40.631Z,1008.61
2022-08-05T09:06:09.071Z,1008.78
2022-08-05T09:06:46.785Z,1008.82
2022-08-05T09:07:57.491Z,1008.85
2022-08-05T09:08:46.510Z,1008.84
2022-08-05T09:09:46.555Z,1008.82
2022-08-05T09:10:46.906Z,1008.77
2022-08-05T09:11:52.477Z,1008.71
2022-08-05T09:12:51.094Z,1008.70
2022-08-05T09:14:09.588Z,1008.69
2022-08-05T09:15:06.344Z,1008.69
2022-08-05T09:15:46.453Z,1008.71
2022-08-05T09:16:48.955Z,1008.72
2022-08-05T09:17:49.702Z,1008.74
2022-08-05T09:18:46.424Z,1008.78
2022-08-05T09:19:55.125Z,1008.80
2022-08-05T09:20:46.419Z,1008.82
2022-08-05T09:22:21.746Z,1008.87
2022-08-05T09:22:51.811Z,1008.91
2022-08-05T09:23:46.500Z,1008.95
2022-08-05T09:24:46.355Z,1009.00
2022-08-05T09:26:03.413Z,1009.01
2022-08-05T09:26:47.940Z,1009.01
2022-08-05T09:28:03.899Z,1008.99
2022-08-05T09:28:46.302Z,1008.98
2022-08-05T09:29:48.003Z,1009.01
2022-08-05T09:30:46.278Z,1008.97
2022-08-05T09:32:42.019Z,1008.97
2022-08-05T09:32:51.732Z,1008.97
2022-08-05T09:33:46.293Z,1008.94
2022-08-05T09:34:46.232Z,1008.94
2022-08-05T09:35:46.250Z,1008.94
2022-08-05T09:36:56.221Z,1008.93
2022-08-05T09:38:13.076Z,1008.95
2022-08-05T09:38:46.201Z,1008.97
2022-08-05T09:39:56.084Z,1009.00
2022-08-05T09:40:52.558Z,1009.03
2022-08-05T09:41:46.165Z,1009.05
2022-08-05T09:42:48.309Z,1009.09
2022-08-05T09:43:46.132Z,1009.12
2022-08-05T09:44:46.137Z,1009.12
2022-08-05T09:46:07.606Z,1009.12
2022-08-05T09:46:51.692Z,1009.12
2022-08-05T09:47:55.147Z,1009.10
2022-08-05T09:49:07.039Z,1009.13
2022-08-05T09:50:01.728Z,1009.11
2022-08-05T09:50:46.209Z,1009.13
2022-08-05T09:51:48.787Z,1009.14
2022-08-05T09:52:46.057Z,1009.17
2022-08-05T09:53:54.984Z,1009.18
2022-08-05T09:54:46.067Z,1009.14
2022-08-05T09:55:56.197Z,1009.12
2022-08-05T09:56:52.227Z,1009.13
2022-08-05T09:57:46.003Z,1009.11
2022-08-05T09:58:45.991Z,1009.08
2022-08-05T09:59:45.980Z,1008.97
2022-08-05T10:00:46.021Z,1008.84
2022-08-05T10:01:46.288Z,1008.75
2022-08-05T10:02:45.968Z,1008.69
2022-08-05T10:03:58.575Z,1008.68
2022-08-05T10:04:45.941Z,1008.68
2022-08-05T10:05:45.911Z,1008.71
2022-08-05T10:06:54.953Z,1008.73
2022-08-05T10:08:10.987Z,1008.71
2022-08-05T10:08:53.982Z,1008.64
2022-08-05T10:09:45.929Z,1008.56
2022-08-05T10:10:45.861Z,1008.52
2022-08-05T10:11:45.855Z,1008.49
2022-08-05T10:12:49.357Z,1008.44
2022-08-05T10:13:48.129Z,1008.42
2022-08-05T10:14:45.966Z,1008.46
2022-08-05T10:15:45.809Z,1008.49
2022-08-05T10:16:52.760Z,1008.53
2022-08-05T10:17:54.613Z,1008.52
2022-08-05T10:18:45.786Z,1008.47
2022-08-05T10:20:04.258Z,1008.40
2022-08-05T10:20:47.604Z,1008.35
2022-08-05T10:21:45.744Z,1008.32
2022-08-05T10:22:48.883Z,1008.29
2022-08-05T10:23:59.374Z,1008.28
2022-08-05T10:24:45.961Z,1008.30
2022-08-05T10:25:45.710Z,1008.34
2022-08-05T10:26:51.387Z,1008.38
2022-08-05T10:28:13.509Z,1008.44
2022-08-05T10:28:46.296Z,1008.54
2022-08-05T10:30:07.209Z,1008.63
2022-08-05T10:32:55.165Z,1008.71
2022-08-05T10:33:09.303Z,1008.72
2022-08-05T10:33:19.417Z,1008.60
2022-08-05T10:34:16.991Z,1008.51
2022-08-05T10:35:15.390Z,1008.53
2022-08-05T10:36:15.341Z,1008.67
2022-08-05T10:37:15.336Z,1008.85
2022-08-05T10:38:15.320Z,1009.01
2022-08-05T10:39:24.611Z,1009.12
2022-08-05T10:40:18.346Z,1009.17
2022-08-05T10:41:15.379Z,1009.20
2022-08-05T10:42:15.286Z,1009.21
2022-08-05T10:43:15.274Z,1009.22
2022-08-05T10:44:15.282Z,1009.22
2022-08-05T10:45:23.407Z,1009.21
2022-08-05T10:46:15.249Z,1009.19
2022-08-05T10:47:25.968Z,1009.19
2022-08-05T10:48:30.704Z,1009.21
2022-08-05T10:49:16.935Z,1009.16
2022-08-05T10:50:32.147Z,1009.06
2022-08-05T10:51:22.437Z,1008.97
2022-08-05T10:52:15.187Z,1008.92
2022-08-05T10:53:15.169Z,1008.91
2022-08-05T10:54:28.468Z,1008.93
2022-08-05T10:55:15.996Z,1008.96
2022-08-05T10:56:25.150Z,1008.98
2022-08-05T10:57:15.140Z,1008.99
2022-08-05T10:58:15.653Z,1009.00
2022-08-05T11:00:03.769Z,1009.01
2022-08-05T11:00:20.253Z,1009.01
2022-08-05T11:01:15.184Z,1009.01
2022-08-05T11:02:35.172Z,1009.03
2022-08-05T11:03:24.550Z,1009.04
2022-08-05T11:04:15.101Z,1009.03
2022-08-05T11:05:18.046Z,1009.02
2022-08-05T11:06:17.859Z,1009.02
2022-08-05T11:07:15.028Z,1009.01
2022-08-05T11:08:36.803Z,1008.99
2022-08-05T11:09:16.802Z,1008.97
2022-08-05T11:10:15.025Z,1008.93
2022-08-05T11:11:16.812Z,1008.88
2022-08-05T11:12:15.034Z,1008.82
2022-08-05T11:13:14.973Z,1008.77
2022-08-05T11:14:14.971Z,1008.71
2022-08-05T11:15:20.229Z,1008.68
2022-08-05T11:16:14.976Z,1008.67
2022-08-05T11:17:57.515Z,1008.67
2022-08-05T11:18:15.195Z,1008.65
2022-08-05T11:20:10.082Z,1008.64
2022-08-05T11:20:22.269Z,1008.64
2022-08-05T11:21:14.898Z,1008.68
2022-08-05T11:22:14.878Z,1008.73
2022-08-05T11:23:14.856Z,1008.76
2022-08-05T11:24:30.570Z,1008.81
2022-08-05T11:25:16.909Z,1008.86
2022-08-05T11:26:14.844Z,1008.91
2022-08-05T11:27:14.843Z,1008.96
2022-08-05T11:28:17.047Z,1008.99
2022-08-05T11:29:14.848Z,1009.01
2022-08-05T11:30:14.785Z,1009.01
2022-08-05T11:31:19.550Z,1009.03
2022-08-05T11:32:14.769Z,1009.07
2022-08-05T11:33:21.113Z,1009.10
2022-08-05T11:34:16.452Z,1009.13
2022-08-05T11:35:15.530Z,1009.15
2022-08-05T11:36:14.759Z,1009.16
2022-08-05T11:38:29.336Z,1009.17
2022-08-05T11:38:46.042Z,1009.14
2022-08-05T11:39:14.760Z,1009.11
2022-08-05T11:40:14.721Z,1009.07
2022-08-05T11:41:54.576Z,1009.08
2022-08-05T11:42:18.213Z,1009.11
2022-08-05T11:43:14.689Z,1009.12
2022-08-05T11:44:40.817Z,1009.12
2022-08-05T11:45:26.949Z,1009.12
2022-08-05T11:46:32.586Z,1009.13
2022-08-05T11:47:18.621Z,1009.14
2022-08-05T11:48:14.739Z,1009.14
2022-08-05T11:49:14.613Z,1009.15
2022-08-05T11:50:14.801Z,1009.15
2022-08-05T11:51:14.628Z,1009.14
2022-08-05T11:52:14.615Z,1009.12
2022-08-05T11:53:15.468Z,1009.14
2022-08-05T11:54:14.599Z,1009.15
2022-08-05T11:55:14.559Z,1009.12
2022-08-05T11:56:14.575Z,1009.10
2022-08-05T11:57:25.097Z,1009.11
2022-08-05T11:58:14.544Z,1009.11
2022-08-05T11:59:14.636Z,1009.12
2022-08-05T12:00:14.566Z,1009.11
2022-08-05T12:01:14.522Z,1009.09
2022-08-05T12:02:24.035Z,1009.07
2022-08-05T12:03:14.547Z,1009.07
2022-08-05T12:04:14.500Z,1009.10
2022-08-05T12:05:18.317Z,1009.10
2022-08-05T12:06:14.446Z,1009.12
2022-08-05T12:07:14.488Z,1009.12
2022-08-05T12:08:18.016Z,1009.10
2022-08-05T12:09:20.117Z,1009.08
2022-08-05T12:10:14.432Z,1009.07